This is the latest recevied weather packets stored in our database for station/object SP9TWP-3. If no packets are shown the sender has not sent any weather packets the latest 1 day(s).
| Time | Temp. | Humidity | Pressure | Rain* | Wind** | Luminosity | Snow |
|---|---|---|---|---|---|---|---|
| 1778081277 | 24.44° C | 33% | 1005.3 hPa | - | - | - | - |
| 1778080377 | 25° C | 33% | 1005.2 hPa | - | - | - | - |
| 1778077676 | 26.67° C | 29% | 1005.6 hPa | - | - | - | - |
| 1778076776 | 27.78° C | 28% | 1005.6 hPa | - | - | - | - |
| 1778075876 | 29.44° C | 25% | 1005.8 hPa | - | - | - | - |
| 1778074976 | 28.33° C | 28% | 1005.8 hPa | - | - | - | - |
| 1778072275 | 26.67° C | 32% | 1006 hPa | - | - | - | - |
| 1778070468 | 26.67° C | 31% | 1006.2 hPa | - | - | - | - |
| 1778069849 | 25.56° C | 34% | 1006.2 hPa | - | - | - | - |
| 1778068696 | 27.22° C | 30% | 1006.3 hPa | - | - | - | - |
| 1778068520 | 25.56° C | 32% | 1006.2 hPa | - | - | - | - |
| 1778068053 | 25.56° C | 34% | 1006.2 hPa | - | - | - | - |
| 1778066022 | 24.44° C | 37% | 1006.3 hPa | - | - | - | - |
| 1778062483 | 22.22° C | 43% | 1006.4 hPa | - | - | - | - |
| 1778059647 | 22.78° C | 41% | 1006.2 hPa | - | - | - | - |
| 1778059118 | 21.67° C | 43% | 1006.1 hPa | - | - | - | - |
| 1778057537 | 21.11° C | 45% | 1006.1 hPa | - | - | - | - |
| 1778056556 | 21.67° C | 46% | 1006.1 hPa | - | - | - | - |
| 1778055464 | 21.11° C | 46% | 1006.1 hPa | - | - | - | - |
| 1778054548 | 21.11° C | 46% | 1006 hPa | - | - | - | - |
| 1778053642 | 20° C | 48% | 1005.9 hPa | - | - | - | - |
| 1778052739 | 20° C | 49% | 1006 hPa | - | - | - | - |
| 1778050938 | 18.89° C | 50% | 1005.8 hPa | - | - | - | - |
| 1778050038 | 18.89° C | 50% | 1005.9 hPa | - | - | - | - |
| 1778049138 | 18.89° C | 49% | 1005.7 hPa | - | - | - | - |
* Rain since midnight (hover to see other rain measurements)
** Current wind speed in m/s (hover to see current wind gust speed)